sensor_id;sensor_type;location;lat;lon;timestamp;pressure;altitude;pressure_sealevel;temperature;humidity
3598;BME280;1813;52.016;8.714;2022-08-27T00:01:15;-16261.94;;;-139.71;71.95
3598;BME280;1813;52.016;8.714;2022-08-27T00:03:49;-16261.94;;;-139.71;72.20
3598;BME280;1813;52.016;8.714;2022-08-27T00:06:21;-16261.94;;;-139.71;72.33
3598;BME280;1813;52.016;8.714;2022-08-27T00:08:54;-16261.94;;;-139.71;72.42
3598;BME280;1813;52.016;8.714;2022-08-27T00:11:26;-16261.94;;;-139.71;72.26
3598;BME280;1813;52.016;8.714;2022-08-27T00:13:58;-16261.94;;;-139.71;72.20
3598;BME280;1813;52.016;8.714;2022-08-27T00:16:30;-16261.94;;;-139.71;72.15
3598;BME280;1813;52.016;8.714;2022-08-27T00:19:04;-16261.94;;;-139.71;72.29
3598;BME280;1813;52.016;8.714;2022-08-27T00:21:36;-16261.94;;;-139.71;72.03
3598;BME280;1813;52.016;8.714;2022-08-27T00:24:08;-16261.94;;;-139.71;71.86
3598;BME280;1813;52.016;8.714;2022-08-27T00:26:42;-16261.94;;;-139.71;71.69
3598;BME280;1813;52.016;8.714;2022-08-27T00:29:15;-16261.94;;;-139.71;71.68
3598;BME280;1813;52.016;8.714;2022-08-27T00:31:47;-16261.94;;;-139.71;72.08
3598;BME280;1813;52.016;8.714;2022-08-27T00:34:21;-16261.94;;;-139.71;72.19
3598;BME280;1813;52.016;8.714;2022-08-27T00:36:53;-16261.94;;;-139.71;72.35
3598;BME280;1813;52.016;8.714;2022-08-27T00:39:25;-16261.94;;;-139.71;72.23
3598;BME280;1813;52.016;8.714;2022-08-27T00:41:57;-16261.94;;;-139.71;72.49
3598;BME280;1813;52.016;8.714;2022-08-27T00:44:30;-16261.94;;;-139.71;72.38
3598;BME280;1813;52.016;8.714;2022-08-27T00:47:05;-16261.94;;;-139.71;72.50
3598;BME280;1813;52.016;8.714;2022-08-27T00:49:42;-16261.94;;;-139.71;72.68
3598;BME280;1813;52.016;8.714;2022-08-27T00:52:19;-16261.94;;;-139.71;73.02
3598;BME280;1813;52.016;8.714;2022-08-27T00:54:56;-16261.94;;;-139.71;72.94
3598;BME280;1813;52.016;8.714;2022-08-27T00:57:30;-16261.94;;;-139.71;73.17
3598;BME280;1813;52.016;8.714;2022-08-27T01:00:11;-16261.94;;;-139.71;72.68
3598;BME280;1813;52.016;8.714;2022-08-27T01:02:43;-16261.94;;;-139.71;72.26
3598;BME280;1813;52.016;8.714;2022-08-27T01:05:20;-16261.94;;;-139.71;72.01
3598;BME280;1813;52.016;8.714;2022-08-27T01:08:00;-16261.94;;;-139.71;72.32
3598;BME280;1813;52.016;8.714;2022-08-27T01:10:33;-16261.94;;;-139.71;72.23
3598;BME280;1813;52.016;8.714;2022-08-27T01:13:06;-16261.94;;;-139.71;72.12
3598;BME280;1813;52.016;8.714;2022-08-27T01:15:39;-16261.94;;;-139.71;72.07
3598;BME280;1813;52.016;8.714;2022-08-27T01:18:13;-16261.94;;;-139.71;72.38
3598;BME280;1813;52.016;8.714;2022-08-27T01:20:50;-16261.94;;;-139.71;72.65
3598;BME280;1813;52.016;8.714;2022-08-27T01:23:31;-16261.94;;;-139.71;72.52
3598;BME280;1813;52.016;8.714;2022-08-27T01:26:08;-16261.94;;;-139.71;72.71
3598;BME280;1813;52.016;8.714;2022-08-27T01:28:43;-16261.94;;;-139.71;72.76
3598;BME280;1813;52.016;8.714;2022-08-27T01:31:16;-16261.94;;;-139.71;72.98
3598;BME280;1813;52.016;8.714;2022-08-27T01:33:56;-16261.94;;;-139.71;72.75
3598;BME280;1813;52.016;8.714;2022-08-27T01:36:29;-16261.94;;;-139.71;72.45
3598;BME280;1813;52.016;8.714;2022-08-27T01:39:01;-16261.94;;;-139.71;72.62
3598;BME280;1813;52.016;8.714;2022-08-27T01:41:35;-16261.94;;;-139.71;72.92
3598;BME280;1813;52.016;8.714;2022-08-27T01:44:07;-16261.94;;;-139.71;73.04
3598;BME280;1813;52.016;8.714;2022-08-27T01:46:39;-16261.94;;;-139.71;72.92
3598;BME280;1813;52.016;8.714;2022-08-27T01:49:11;-16261.94;;;-139.71;72.84
3598;BME280;1813;52.016;8.714;2022-08-27T01:51:43;-16261.94;;;-139.71;72.84
3598;BME280;1813;52.016;8.714;2022-08-27T01:54:15;-16261.94;;;-139.71;72.94
3598;BME280;1813;52.016;8.714;2022-08-27T01:56:48;-16261.94;;;-139.71;73.04
3598;BME280;1813;52.016;8.714;2022-08-27T01:59:20;-16261.94;;;-139.71;72.50
3598;BME280;1813;52.016;8.714;2022-08-27T02:01:53;-16261.94;;;-139.71;72.64
3598;BME280;1813;52.016;8.714;2022-08-27T02:04:26;-16261.94;;;-139.71;73.02
3598;BME280;1813;52.016;8.714;2022-08-27T02:06:58;-16261.94;;;-139.71;72.49
3598;BME280;1813;52.016;8.714;2022-08-27T02:09:31;-16261.94;;;-139.71;72.60
3598;BME280;1813;52.016;8.714;2022-08-27T02:12:05;-16261.94;;;-139.71;72.60
3598;BME280;1813;52.016;8.714;2022-08-27T02:14:37;-16261.94;;;-139.71;72.57
3598;BME280;1813;52.016;8.714;2022-08-27T02:17:09;-16261.94;;;-139.71;72.61
3598;BME280;1813;52.016;8.714;2022-08-27T02:19:41;-16261.94;;;-139.71;72.94
3598;BME280;1813;52.016;8.714;2022-08-27T02:22:13;-16261.94;;;-139.71;72.69
3598;BME280;1813;52.016;8.714;2022-08-27T02:24:46;-16261.94;;;-139.71;72.80
3598;BME280;1813;52.016;8.714;2022-08-27T02:27:20;-16261.94;;;-139.71;72.23
3598;BME280;1813;52.016;8.714;2022-08-27T02:29:52;-16261.94;;;-139.71;71.85
3598;BME280;1813;52.016;8.714;2022-08-27T02:32:25;-16261.94;;;-139.71;71.61
3598;BME280;1813;52.016;8.714;2022-08-27T02:34:58;-16261.94;;;-139.71;71.27
3598;BME280;1813;52.016;8.714;2022-08-27T02:37:30;-16261.94;;;-139.71;71.75
3598;BME280;1813;52.016;8.714;2022-08-27T02:40:03;-16261.94;;;-139.71;72.17
3598;BME280;1813;52.016;8.714;2022-08-27T02:42:37;-16261.94;;;-139.71;71.98
3598;BME280;1813;52.016;8.714;2022-08-27T02:45:10;-16261.94;;;-139.71;72.38
3598;BME280;1813;52.016;8.714;2022-08-27T02:47:43;-16261.94;;;-139.71;72.46
3598;BME280;1813;52.016;8.714;2022-08-27T02:50:15;-16261.94;;;-139.71;72.10
3598;BME280;1813;52.016;8.714;2022-08-27T02:52:47;-16261.94;;;-139.71;70.80
3598;BME280;1813;52.016;8.714;2022-08-27T02:55:20;-16261.94;;;-139.71;70.82
3598;BME280;1813;52.016;8.714;2022-08-27T02:57:54;-16261.94;;;-139.71;70.42
3598;BME280;1813;52.016;8.714;2022-08-27T03:00:26;-16261.94;;;-139.71;70.69
3598;BME280;1813;52.016;8.714;2022-08-27T03:03:00;-16261.94;;;-139.71;70.37
3598;BME280;1813;52.016;8.714;2022-08-27T03:05:35;-16261.94;;;-139.71;70.23
3598;BME280;1813;52.016;8.714;2022-08-27T03:08:07;-16261.94;;;-139.71;70.61
3598;BME280;1813;52.016;8.714;2022-08-27T03:10:39;-16261.94;;;-139.71;70.79
3598;BME280;1813;52.016;8.714;2022-08-27T03:13:12;-16261.94;;;-139.71;71.00
3598;BME280;1813;52.016;8.714;2022-08-27T03:15:44;-16261.94;;;-139.71;71.17
3598;BME280;1813;52.016;8.714;2022-08-27T03:18:16;-16261.94;;;-139.71;71.17
3598;BME280;1813;52.016;8.714;2022-08-27T03:20:49;-16261.94;;;-139.71;70.96
3598;BME280;1813;52.016;8.714;2022-08-27T03:23:23;-16261.94;;;-139.71;70.92
3598;BME280;1813;52.016;8.714;2022-08-27T03:25:58;-16261.94;;;-139.71;70.91
3598;BME280;1813;52.016;8.714;2022-08-27T03:28:33;-16261.94;;;-139.71;71.11
3598;BME280;1813;52.016;8.714;2022-08-27T03:31:08;-16261.94;;;-139.71;70.98
3598;BME280;1813;52.016;8.714;2022-08-27T03:33:44;-16261.94;;;-139.71;70.98
3598;BME280;1813;52.016;8.714;2022-08-27T03:36:16;-16261.94;;;-139.71;70.85
3598;BME280;1813;52.016;8.714;2022-08-27T03:38:47;-16261.94;;;-139.71;70.91
3598;BME280;1813;52.016;8.714;2022-08-27T03:41:20;-16261.94;;;-139.71;70.64
3598;BME280;1813;52.016;8.714;2022-08-27T03:43:53;-16261.94;;;-139.71;70.66
3598;BME280;1813;52.016;8.714;2022-08-27T03:46:26;-16261.94;;;-139.71;70.28
3598;BME280;1813;52.016;8.714;2022-08-27T03:49:00;-16261.94;;;-139.71;70.25
3598;BME280;1813;52.016;8.714;2022-08-27T03:51:32;-16261.94;;;-139.71;70.50
3598;BME280;1813;52.016;8.714;2022-08-27T03:54:04;-16261.94;;;-139.71;70.44
3598;BME280;1813;52.016;8.714;2022-08-27T03:56:36;-16261.94;;;-139.71;70.63
3598;BME280;1813;52.016;8.714;2022-08-27T03:59:12;-16261.94;;;-139.71;70.18
3598;BME280;1813;52.016;8.714;2022-08-27T04:01:45;-16261.94;;;-139.71;70.18
3598;BME280;1813;52.016;8.714;2022-08-27T04:04:16;-16261.94;;;-139.71;70.37
3598;BME280;1813;52.016;8.714;2022-08-27T04:06:49;-16261.94;;;-139.71;70.49
3598;BME280;1813;52.016;8.714;2022-08-27T04:09:21;-16261.94;;;-139.71;69.51
3598;BME280;1813;52.016;8.714;2022-08-27T04:11:53;-16261.94;;;-139.71;69.63
3598;BME280;1813;52.016;8.714;2022-08-27T04:14:27;-16261.94;;;-139.71;69.74
3598;BME280;1813;52.016;8.714;2022-08-27T04:16:59;-16261.94;;;-139.71;69.05
3598;BME280;1813;52.016;8.714;2022-08-27T04:19:31;-16261.94;;;-139.71;68.49
3598;BME280;1813;52.016;8.714;2022-08-27T04:22:05;-16261.94;;;-139.71;68.81
3598;BME280;1813;52.016;8.714;2022-08-27T04:24:37;-16261.94;;;-139.71;68.61
3598;BME280;1813;52.016;8.714;2022-08-27T04:27:10;-16261.94;;;-139.71;68.53
3598;BME280;1813;52.016;8.714;2022-08-27T04:29:45;-16261.94;;;-139.71;68.58
3598;BME280;1813;52.016;8.714;2022-08-27T04:32:17;-16261.94;;;-139.71;68.86
3598;BME280;1813;52.016;8.714;2022-08-27T04:34:52;-16261.94;;;-139.71;68.66
3598;BME280;1813;52.016;8.714;2022-08-27T04:37:25;-16261.94;;;-139.71;68.78
3598;BME280;1813;52.016;8.714;2022-08-27T04:39:59;-16261.94;;;-139.71;68.75
3598;BME280;1813;52.016;8.714;2022-08-27T04:42:31;-16261.94;;;-139.71;68.38
3598;BME280;1813;52.016;8.714;2022-08-27T04:45:06;-16261.94;;;-139.71;68.04
3598;BME280;1813;52.016;8.714;2022-08-27T04:47:38;-16261.94;;;-139.71;68.32
3598;BME280;1813;52.016;8.714;2022-08-27T04:50:10;-16261.94;;;-139.71;68.31
3598;BME280;1813;52.016;8.714;2022-08-27T04:52:42;-16261.94;;;-139.71;68.37
3598;BME280;1813;52.016;8.714;2022-08-27T04:55:15;-16261.94;;;-139.71;68.62
3598;BME280;1813;52.016;8.714;2022-08-27T04:57:46;-16261.94;;;-139.71;68.56
3598;BME280;1813;52.016;8.714;2022-08-27T05:00:20;-16261.94;;;-139.71;68.58
3598;BME280;1813;52.016;8.714;2022-08-27T05:02:52;-16261.94;;;-139.71;68.42
3598;BME280;1813;52.016;8.714;2022-08-27T05:05:25;-16261.94;;;-139.71;69.01
3598;BME280;1813;52.016;8.714;2022-08-27T05:07:57;-16261.94;;;-139.71;68.64
3598;BME280;1813;52.016;8.714;2022-08-27T05:10:29;-16261.94;;;-139.71;68.69
3598;BME280;1813;52.016;8.714;2022-08-27T05:13:01;-16261.94;;;-139.71;68.67
3598;BME280;1813;52.016;8.714;2022-08-27T05:15:35;-16261.94;;;-139.71;68.62
3598;BME280;1813;52.016;8.714;2022-08-27T05:18:07;-16261.94;;;-139.71;68.12
3598;BME280;1813;52.016;8.714;2022-08-27T05:20:42;-16261.94;;;-139.71;68.01
3598;BME280;1813;52.016;8.714;2022-08-27T05:23:16;-16261.94;;;-139.71;67.90
3598;BME280;1813;52.016;8.714;2022-08-27T05:25:49;-16261.94;;;-139.71;67.51
3598;BME280;1813;52.016;8.714;2022-08-27T05:28:25;-16261.94;;;-139.71;67.77
3598;BME280;1813;52.016;8.714;2022-08-27T05:31:04;-16261.94;;;-139.71;67.51
3598;BME280;1813;52.016;8.714;2022-08-27T05:33:37;-16261.94;;;-139.71;67.53
3598;BME280;1813;52.016;8.714;2022-08-27T05:36:15;-16261.94;;;-139.71;67.33
3598;BME280;1813;52.016;8.714;2022-08-27T05:38:48;-16261.94;;;-139.71;67.48
3598;BME280;1813;52.016;8.714;2022-08-27T05:41:23;-16261.94;;;-139.71;67.58
3598;BME280;1813;52.016;8.714;2022-08-27T05:43:59;-16261.94;;;-139.71;67.48
3598;BME280;1813;52.016;8.714;2022-08-27T05:46:33;-16261.94;;;-139.71;67.40
3598;BME280;1813;52.016;8.714;2022-08-27T05:49:05;-16261.94;;;-139.71;67.38
3598;BME280;1813;52.016;8.714;2022-08-27T05:51:38;-16261.94;;;-139.71;67.61
3598;BME280;1813;52.016;8.714;2022-08-27T05:54:11;-16261.94;;;-139.71;67.85
3598;BME280;1813;52.016;8.714;2022-08-27T05:56:48;-16261.94;;;-139.71;67.38
3598;BME280;1813;52.016;8.714;2022-08-27T05:59:20;-16261.94;;;-139.71;67.55
3598;BME280;1813;52.016;8.714;2022-08-27T06:02:11;-16261.94;;;-139.71;67.38
3598;BME280;1813;52.016;8.714;2022-08-27T06:04:43;-16261.94;;;-139.71;67.64
3598;BME280;1813;52.016;8.714;2022-08-27T06:07:15;-16261.94;;;-139.71;67.92
3598;BME280;1813;52.016;8.714;2022-08-27T06:09:47;-16261.94;;;-139.71;68.05
3598;BME280;1813;52.016;8.714;2022-08-27T06:12:19;-16261.94;;;-139.71;67.53
3598;BME280;1813;52.016;8.714;2022-08-27T06:14:50;-16261.94;;;-139.71;67.26
3598;BME280;1813;52.016;8.714;2022-08-27T06:17:24;-16261.94;;;-139.71;67.16
3598;BME280;1813;52.016;8.714;2022-08-27T06:19:56;-16261.94;;;-139.71;67.38
3598;BME280;1813;52.016;8.714;2022-08-27T06:22:28;-16261.94;;;-139.71;67.23
3598;BME280;1813;52.016;8.714;2022-08-27T06:25:00;-16261.94;;;-139.71;67.08
3598;BME280;1813;52.016;8.714;2022-08-27T06:27:32;-16261.94;;;-139.71;67.03
3598;BME280;1813;52.016;8.714;2022-08-27T06:30:05;-16261.94;;;-139.71;66.87
3598;BME280;1813;52.016;8.714;2022-08-27T06:32:38;-16261.94;;;-139.71;66.98
3598;BME280;1813;52.016;8.714;2022-08-27T06:35:10;-16261.94;;;-139.71;66.80
3598;BME280;1813;52.016;8.714;2022-08-27T06:37:42;-16261.94;;;-139.71;66.28
3598;BME280;1813;52.016;8.714;2022-08-27T06:40:15;-16261.94;;;-139.71;66.41
3598;BME280;1813;52.016;8.714;2022-08-27T06:42:47;-16261.94;;;-139.71;66.46
3598;BME280;1813;52.016;8.714;2022-08-27T06:45:19;-16261.94;;;-139.71;66.50
3598;BME280;1813;52.016;8.714;2022-08-27T06:47:52;-16261.94;;;-139.71;66.85
3598;BME280;1813;52.016;8.714;2022-08-27T06:50:25;-16261.94;;;-139.71;67.00
3598;BME280;1813;52.016;8.714;2022-08-27T06:52:57;-16261.94;;;-139.71;66.69
3598;BME280;1813;52.016;8.714;2022-08-27T06:55:29;-16261.94;;;-139.71;66.89
3598;BME280;1813;52.016;8.714;2022-08-27T06:58:01;-16261.94;;;-139.71;66.43
3598;BME280;1813;52.016;8.714;2022-08-27T07:00:33;-16261.94;;;-139.71;66.30
3598;BME280;1813;52.016;8.714;2022-08-27T07:03:07;-16261.94;;;-139.71;65.98
3598;BME280;1813;52.016;8.714;2022-08-27T07:05:39;-16261.94;;;-139.71;65.70
3598;BME280;1813;52.016;8.714;2022-08-27T07:08:11;-16261.94;;;-139.71;65.65
3598;BME280;1813;52.016;8.714;2022-08-27T07:10:43;-16261.94;;;-139.71;65.31
3598;BME280;1813;52.016;8.714;2022-08-27T07:13:15;-16261.94;;;-139.71;65.02
3598;BME280;1813;52.016;8.714;2022-08-27T07:15:47;-16261.94;;;-139.71;64.88
3598;BME280;1813;52.016;8.714;2022-08-27T07:18:21;-16261.94;;;-139.71;64.78
3598;BME280;1813;52.016;8.714;2022-08-27T07:20:53;-16261.94;;;-139.71;65.06
3598;BME280;1813;52.016;8.714;2022-08-27T07:23:25;-16261.94;;;-139.71;65.16
3598;BME280;1813;52.016;8.714;2022-08-27T07:25:58;-16261.94;;;-139.71;65.43
3598;BME280;1813;52.016;8.714;2022-08-27T07:28:31;-16261.94;;;-139.71;65.42
3598;BME280;1813;52.016;8.714;2022-08-27T07:31:04;-16261.94;;;-139.71;65.33
3598;BME280;1813;52.016;8.714;2022-08-27T07:33:40;-16261.94;;;-139.71;65.32
3598;BME280;1813;52.016;8.714;2022-08-27T07:36:12;-16261.94;;;-139.71;64.61
3598;BME280;1813;52.016;8.714;2022-08-27T07:38:44;-16261.94;;;-139.71;64.62
3598;BME280;1813;52.016;8.714;2022-08-27T07:41:16;-16261.94;;;-139.71;64.23
3598;BME280;1813;52.016;8.714;2022-08-27T07:43:48;-16261.94;;;-139.71;64.77
3598;BME280;1813;52.016;8.714;2022-08-27T07:46:37;-16261.94;;;-139.71;64.84
3598;BME280;1813;52.016;8.714;2022-08-27T07:49:11;-16261.94;;;-139.71;64.69
3598;BME280;1813;52.016;8.714;2022-08-27T07:51:43;-16261.94;;;-139.71;64.23
3598;BME280;1813;52.016;8.714;2022-08-27T07:54:16;-16261.94;;;-139.71;63.76
3598;BME280;1813;52.016;8.714;2022-08-27T07:56:49;-16261.94;;;-139.71;63.75
3598;BME280;1813;52.016;8.714;2022-08-27T07:59:21;-16261.94;;;-139.71;64.30
3598;BME280;1813;52.016;8.714;2022-08-27T08:01:55;-16261.94;;;-139.71;63.82
3598;BME280;1813;52.016;8.714;2022-08-27T08:04:29;-16261.94;;;-139.71;64.03
3598;BME280;1813;52.016;8.714;2022-08-27T08:07:01;-16261.94;;;-139.71;64.18
3598;BME280;1813;52.016;8.714;2022-08-27T08:09:33;-16261.94;;;-139.71;63.17
3598;BME280;1813;52.016;8.714;2022-08-27T08:12:05;-16261.94;;;-139.71;62.47
3598;BME280;1813;52.016;8.714;2022-08-27T08:14:37;-16261.94;;;-139.71;62.35
3598;BME280;1813;52.016;8.714;2022-08-27T08:17:09;-16261.94;;;-139.71;61.82
3598;BME280;1813;52.016;8.714;2022-08-27T08:19:42;-16261.94;;;-139.71;61.99
3598;BME280;1813;52.016;8.714;2022-08-27T08:22:14;-16261.94;;;-139.71;61.74
3598;BME280;1813;52.016;8.714;2022-08-27T08:24:46;-16261.94;;;-139.71;61.80
3598;BME280;1813;52.016;8.714;2022-08-27T08:27:18;-16261.94;;;-139.71;61.74
3598;BME280;1813;52.016;8.714;2022-08-27T08:29:50;-16261.94;;;-139.71;62.31
3598;BME280;1813;52.016;8.714;2022-08-27T08:32:22;-16261.94;;;-139.71;62.69
3598;BME280;1813;52.016;8.714;2022-08-27T08:34:56;-16261.94;;;-139.71;62.57
3598;BME280;1813;52.016;8.714;2022-08-27T08:37:29;-16261.94;;;-139.71;62.20
3598;BME280;1813;52.016;8.714;2022-08-27T08:40:02;-16261.94;;;-139.71;63.01
3598;BME280;1813;52.016;8.714;2022-08-27T08:42:38;-16261.94;;;-139.71;62.69
3598;BME280;1813;52.016;8.714;2022-08-27T08:45:13;-16261.94;;;-139.71;62.64
3598;BME280;1813;52.016;8.714;2022-08-27T08:47:50;-16261.94;;;-139.71;63.14
3598;BME280;1813;52.016;8.714;2022-08-27T08:50:32;-16261.94;;;-139.71;63.33
3598;BME280;1813;52.016;8.714;2022-08-27T08:53:09;-16261.94;;;-139.71;64.00
3598;BME280;1813;52.016;8.714;2022-08-27T08:55:47;-16261.94;;;-139.71;64.29
3598;BME280;1813;52.016;8.714;2022-08-27T08:58:25;-16261.94;;;-139.71;63.95
3598;BME280;1813;52.016;8.714;2022-08-27T09:01:04;-16261.94;;;-139.71;63.22
3598;BME280;1813;52.016;8.714;2022-08-27T09:03:39;-16261.94;;;-139.71;63.71
3598;BME280;1813;52.016;8.714;2022-08-27T09:06:20;-16261.94;;;-139.71;63.55
3598;BME280;1813;52.016;8.714;2022-08-27T09:08:54;-16261.94;;;-139.71;63.42
3598;BME280;1813;52.016;8.714;2022-08-27T09:11:31;-16261.94;;;-139.71;63.30
3598;BME280;1813;52.016;8.714;2022-08-27T09:14:17;-16261.94;;;-139.71;63.67
3598;BME280;1813;52.016;8.714;2022-08-27T09:16:52;-16261.94;;;-139.71;64.41
3598;BME280;1813;52.016;8.714;2022-08-27T09:19:24;-16261.94;;;-139.71;64.70
3598;BME280;1813;52.016;8.714;2022-08-27T09:22:03;-16261.94;;;-139.71;64.80
3598;BME280;1813;52.016;8.714;2022-08-27T09:24:45;-16261.94;;;-139.71;65.25
3598;BME280;1813;52.016;8.714;2022-08-27T09:27:23;-16261.94;;;-139.71;64.81
3598;BME280;1813;52.016;8.714;2022-08-27T09:29:56;-16261.94;;;-139.71;64.47
3598;BME280;1813;52.016;8.714;2022-08-27T09:32:31;-16261.94;;;-139.71;64.53
3598;BME280;1813;52.016;8.714;2022-08-27T09:35:07;-16261.94;;;-139.71;64.67
3598;BME280;1813;52.016;8.714;2022-08-27T09:37:43;-16261.94;;;-139.71;64.71
3598;BME280;1813;52.016;8.714;2022-08-27T09:40:21;-16261.94;;;-139.71;65.05
3598;BME280;1813;52.016;8.714;2022-08-27T09:42:57;-16261.94;;;-139.71;65.52
3598;BME280;1813;52.016;8.714;2022-08-27T09:45:46;-16261.94;;;-139.71;65.77
3598;BME280;1813;52.016;8.714;2022-08-27T09:48:20;-16261.94;;;-139.71;66.12
3598;BME280;1813;52.016;8.714;2022-08-27T09:50:54;-16261.94;;;-139.71;66.46
3598;BME280;1813;52.016;8.714;2022-08-27T09:53:32;-16261.94;;;-139.71;66.17
3598;BME280;1813;52.016;8.714;2022-08-27T09:56:06;-16261.94;;;-139.71;66.38
3598;BME280;1813;52.016;8.714;2022-08-27T09:58:47;-16261.94;;;-139.71;66.63
3598;BME280;1813;52.016;8.714;2022-08-27T10:01:23;-16261.94;;;-139.71;66.62
3598;BME280;1813;52.016;8.714;2022-08-27T10:04:07;-16261.94;;;-139.71;66.86
3598;BME280;1813;52.016;8.714;2022-08-27T10:06:45;-16261.94;;;-139.71;67.38
3598;BME280;1813;52.016;8.714;2022-08-27T10:09:24;-16261.94;;;-139.71;66.86
3598;BME280;1813;52.016;8.714;2022-08-27T10:12:04;-16261.94;;;-139.71;66.78
3598;BME280;1813;52.016;8.714;2022-08-27T10:14:41;-16261.94;;;-139.71;67.14
3598;BME280;1813;52.016;8.714;2022-08-27T10:17:19;-16261.94;;;-139.71;66.91
3598;BME280;1813;52.016;8.714;2022-08-27T10:20:00;-16261.94;;;-139.71;67.24
3598;BME280;1813;52.016;8.714;2022-08-27T10:22:39;-16261.94;;;-139.71;67.24
3598;BME280;1813;52.016;8.714;2022-08-27T10:25:24;-16261.94;;;-139.71;67.63
3598;BME280;1813;52.016;8.714;2022-08-27T10:28:05;-16261.94;;;-139.71;67.09
3598;BME280;1813;52.016;8.714;2022-08-27T10:30:53;-16261.94;;;-139.71;67.21
3598;BME280;1813;52.016;8.714;2022-08-27T10:33:35;-16261.94;;;-139.71;67.62
3598;BME280;1813;52.016;8.714;2022-08-27T10:36:17;-16261.94;;;-139.71;68.21
3598;BME280;1813;52.016;8.714;2022-08-27T10:38:58;-16261.94;;;-139.71;67.94
3598;BME280;1813;52.016;8.714;2022-08-27T10:41:40;-16261.94;;;-139.71;67.45
3598;BME280;1813;52.016;8.714;2022-08-27T10:44:33;-16261.94;;;-139.71;67.68
3598;BME280;1813;52.016;8.714;2022-08-27T10:47:17;-16261.94;;;-139.71;68.16
3598;BME280;1813;52.016;8.714;2022-08-27T10:50:02;-16261.94;;;-139.71;67.66
3598;BME280;1813;52.016;8.714;2022-08-27T10:52:38;-16261.94;;;-139.71;68.24
3598;BME280;1813;52.016;8.714;2022-08-27T10:55:19;-16261.94;;;-139.71;67.59
3598;BME280;1813;52.016;8.714;2022-08-27T10:58:05;-16261.94;;;-139.71;66.37
3598;BME280;1813;52.016;8.714;2022-08-27T11:00:47;-16261.94;;;-139.71;65.77
3598;BME280;1813;52.016;8.714;2022-08-27T11:03:26;-16261.94;;;-139.71;65.49
3598;BME280;1813;52.016;8.714;2022-08-27T11:06:09;-16261.94;;;-139.71;66.06
3598;BME280;1813;52.016;8.714;2022-08-27T11:08:48;-16261.94;;;-139.71;66.23
3598;BME280;1813;52.016;8.714;2022-08-27T11:11:27;-16261.94;;;-139.71;65.66
3598;BME280;1813;52.016;8.714;2022-08-27T11:14:11;-16261.94;;;-139.71;66.32
3598;BME280;1813;52.016;8.714;2022-08-27T11:16:48;-16261.94;;;-139.71;65.85
3598;BME280;1813;52.016;8.714;2022-08-27T11:19:28;-16261.94;;;-139.71;65.64
3598;BME280;1813;52.016;8.714;2022-08-27T11:22:06;-16261.94;;;-139.71;65.47
3598;BME280;1813;52.016;8.714;2022-08-27T11:24:46;-16261.94;;;-139.71;65.20
3598;BME280;1813;52.016;8.714;2022-08-27T11:27:23;-16261.94;;;-139.71;65.10
3598;BME280;1813;52.016;8.714;2022-08-27T11:30:02;-16261.94;;;-139.71;64.71
3598;BME280;1813;52.016;8.714;2022-08-27T11:32:44;-16261.94;;;-139.71;64.68
3598;BME280;1813;52.016;8.714;2022-08-27T11:35:19;-16261.94;;;-139.71;64.30
3598;BME280;1813;52.016;8.714;2022-08-27T11:38:18;-16261.94;;;-139.71;64.29
3598;BME280;1813;52.016;8.714;2022-08-27T11:41:04;-16261.94;;;-139.71;64.03
3598;BME280;1813;52.016;8.714;2022-08-27T11:43:41;-16261.94;;;-139.71;63.68
3598;BME280;1813;52.016;8.714;2022-08-27T11:46:22;-16261.94;;;-139.71;63.83
3598;BME280;1813;52.016;8.714;2022-08-27T11:48:56;-16261.94;;;-139.71;63.55
3598;BME280;1813;52.016;8.714;2022-08-27T11:51:32;-16261.94;;;-139.71;63.14
3598;BME280;1813;52.016;8.714;2022-08-27T11:54:07;-16261.94;;;-139.71;63.02
3598;BME280;1813;52.016;8.714;2022-08-27T11:56:41;-16261.94;;;-139.71;63.91
3598;BME280;1813;52.016;8.714;2022-08-27T11:59:21;-16261.94;;;-139.71;62.23
3598;BME280;1813;52.016;8.714;2022-08-27T12:01:57;-16261.94;;;-139.71;61.90
3598;BME280;1813;52.016;8.714;2022-08-27T12:04:35;-16261.94;;;-139.71;61.66
3598;BME280;1813;52.016;8.714;2022-08-27T12:07:27;-16261.94;;;-139.71;61.86
3598;BME280;1813;52.016;8.714;2022-08-27T12:10:14;-16261.94;;;-139.71;61.28
3598;BME280;1813;52.016;8.714;2022-08-27T12:12:56;-16261.94;;;-139.71;61.33
3598;BME280;1813;52.016;8.714;2022-08-27T12:15:45;-16261.94;;;-139.71;61.10
3598;BME280;1813;52.016;8.714;2022-08-27T12:18:43;-16261.94;;;-139.71;61.77
3598;BME280;1813;52.016;8.714;2022-08-27T12:21:27;-16261.94;;;-139.71;61.60
3598;BME280;1813;52.016;8.714;2022-08-27T12:24:12;-16261.94;;;-139.71;61.04
3598;BME280;1813;52.016;8.714;2022-08-27T12:26:54;-16261.94;;;-139.71;61.37
3598;BME280;1813;52.016;8.714;2022-08-27T12:29:34;-16261.94;;;-139.71;61.06
3598;BME280;1813;52.016;8.714;2022-08-27T12:32:23;-16261.94;;;-139.71;60.74
3598;BME280;1813;52.016;8.714;2022-08-27T12:35:06;-16261.94;;;-139.71;60.11
3598;BME280;1813;52.016;8.714;2022-08-27T12:37:43;-16261.94;;;-139.71;59.85
3598;BME280;1813;52.016;8.714;2022-08-27T12:40:22;-16261.94;;;-139.71;59.97
3598;BME280;1813;52.016;8.714;2022-08-27T12:43:13;-16261.94;;;-139.71;60.43
3598;BME280;1813;52.016;8.714;2022-08-27T12:45:49;-16261.94;;;-139.71;59.91
3598;BME280;1813;52.016;8.714;2022-08-27T12:48:24;-16261.94;;;-139.71;59.59
3598;BME280;1813;52.016;8.714;2022-08-27T12:51:00;-16261.94;;;-139.71;58.84
3598;BME280;1813;52.016;8.714;2022-08-27T12:53:40;-16261.94;;;-139.71;57.99
3598;BME280;1813;52.016;8.714;2022-08-27T12:56:31;-16261.94;;;-139.71;58.94
3598;BME280;1813;52.016;8.714;2022-08-27T12:59:28;-16261.94;;;-139.71;57.95
3598;BME280;1813;52.016;8.714;2022-08-27T13:02:20;-16261.94;;;-139.71;58.53
3598;BME280;1813;52.016;8.714;2022-08-27T13:04:57;-16261.94;;;-139.71;57.97
3598;BME280;1813;52.016;8.714;2022-08-27T13:07:39;-16261.94;;;-139.71;58.14
3598;BME280;1813;52.016;8.714;2022-08-27T13:10:14;-16261.94;;;-139.71;57.49
3598;BME280;1813;52.016;8.714;2022-08-27T13:13:01;-16261.94;;;-139.71;56.72
3598;BME280;1813;52.016;8.714;2022-08-27T13:15:34;-16261.94;;;-139.71;55.68
3598;BME280;1813;52.016;8.714;2022-08-27T13:18:08;-16261.94;;;-139.71;56.20
3598;BME280;1813;52.016;8.714;2022-08-27T13:20:41;-16261.94;;;-139.71;56.11
3598;BME280;1813;52.016;8.714;2022-08-27T13:23:18;-16261.94;;;-139.71;56.54
3598;BME280;1813;52.016;8.714;2022-08-27T13:25:54;-16261.94;;;-139.71;56.66
3598;BME280;1813;52.016;8.714;2022-08-27T13:28:28;-16261.94;;;-139.71;55.56
3598;BME280;1813;52.016;8.714;2022-08-27T13:31:01;-16261.94;;;-139.71;55.46
3598;BME280;1813;52.016;8.714;2022-08-27T13:33:35;-16261.94;;;-139.71;55.98